Time;durP1;ratioP1;P1;durP2;ratioP2;P2;SDS_P1;SDS_P2;PMS_P1;PMS_P2;Temp;Humidity;BMP_temperature;BMP_pressure;BME280_temperature;BME280_humidity;BME280_pressure;Samples;Min_cycle;Max_cycle;Signal;HPM_P1;HPM_P2
2021/01/30 00:02:08;;;;;;;1.73;0.45;;;;;;;6.50;84.38;98130.38;2316828;66;22874;-77
2021/01/30 00:05:11;;;;;;;3.09;1.04;;;;;;;6.47;84.58;98134.72;2317762;69;20350;-77
2021/01/30 00:08:14;;;;;;;3.30;1.56;;;;;;;6.44;84.84;98134.72;2317275;69;20406;-78
2021/01/30 00:11:16;;;;;;;2.55;0.40;;;;;;;6.47;85.30;98134.72;2316720;69;20292;-79
2021/01/30 00:14:24;;;;;;;1.60;0.40;;;;;;;6.52;85.71;98141.53;2318109;69;20310;-78
2021/01/30 00:17:26;;;;;;;2.21;0.40;;;;;;;6.56;85.98;98135.47;2316140;66;22457;-77
2021/01/30 00:20:31;;;;;;;2.08;0.50;;;;;;;6.59;85.96;98121.69;2316350;69;20870;-77
2021/01/30 00:23:33;;;;;;;6.53;1.01;;;;;;;6.61;86.02;98127.69;2316252;69;20403;-77
2021/01/30 00:26:35;;;;;;;3.09;0.64;;;;;;;6.65;86.05;98126.81;2318414;69;20694;-77
2021/01/30 00:29:38;;;;;;;4.19;0.69;;;;;;;6.66;86.21;98116.50;2317360;69;20613;-77
2021/01/30 00:35:47;;;;;;;5.26;0.94;;;;;;;6.75;86.16;98118.09;2302280;69;20282;-77
2021/01/30 00:38:52;;;;;;;2.54;0.46;;;;;;;6.77;86.09;98106.03;2304187;69;20152;-77
2021/01/30 00:41:53;;;;;;;3.46;1.17;;;;;;;6.77;86.10;98100.88;2302835;69;20326;-77
2021/01/30 00:44:55;;;;;;;1.98;0.52;;;;;;;6.78;85.97;98094.00;2302733;69;20298;-78
2021/01/30 00:47:57;;;;;;;2.38;0.50;;;;;;;6.81;85.75;98093.97;2304884;67;23987;-77
2021/01/30 00:50:58;;;;;;;4.71;0.91;;;;;;;6.82;85.52;98091.41;2303899;69;20298;-77
2021/01/30 00:54:00;;;;;;;1.95;0.54;;;;;;;6.83;85.39;98094.84;2303584;69;20310;-78
2021/01/30 00:57:02;;;;;;;2.29;0.79;;;;;;;6.84;85.28;98089.66;2304978;69;20282;-79
2021/01/30 01:00:11;;;;;;;2.38;0.52;;;;;;;6.88;85.15;98090.47;2304347;69;21298;-78
2021/01/30 01:03:12;;;;;;;2.71;0.93;;;;;;;6.88;85.14;98088.75;2304931;67;21351;-77
2021/01/30 01:06:15;;;;;;;3.79;0.50;;;;;;;6.90;85.19;98093.88;2304137;69;20247;-77
2021/01/30 01:09:18;;;;;;;4.63;0.50;;;;;;;6.89;85.23;98092.19;2303313;69;20296;-78
2021/01/30 01:12:20;;;;;;;5.30;0.64;;;;;;;6.89;85.33;98080.13;2303945;69;20313;-78
2021/01/30 01:15:22;;;;;;;2.11;0.43;;;;;;;6.90;85.35;98079.25;2302340;69;21983;-77
2021/01/30 01:18:24;;;;;;;5.56;0.41;;;;;;;6.89;85.29;98079.28;2304506;69;20842;-77
2021/01/30 01:21:26;;;;;;;3.69;0.55;;;;;;;6.89;85.37;98089.59;2304399;69;20453;-77
2021/01/30 01:24:27;;;;;;;5.40;0.63;;;;;;;6.88;85.69;98093.06;2303729;69;20324;-77
2021/01/30 01:27:29;;;;;;;3.60;0.73;;;;;;;6.88;85.92;98099.06;2304480;69;20294;-77
2021/01/30 01:30:31;;;;;;;4.00;0.77;;;;;;;6.86;86.10;98095.66;2303379;66;22893;-77
2021/01/30 01:33:33;;;;;;;4.90;0.74;;;;;;;6.83;86.47;98097.41;2303619;69;20322;-77
2021/01/30 01:36:35;;;;;;;2.51;0.71;;;;;;;6.84;86.64;98099.13;2303874;69;20306;-77
2021/01/30 01:39:39;;;;;;;3.22;0.60;;;;;;;6.82;86.69;98091.41;2303031;69;20388;-77
2021/01/30 01:42:41;;;;;;;5.35;0.69;;;;;;;6.80;86.89;98080.22;2305400;69;21037;-78
2021/01/30 01:45:59;;;;;;;3.86;0.73;;;;;;;6.81;86.88;98081.06;2302343;66;23434;-78
2021/01/30 01:49:21;;;;;;;5.93;0.70;;;;;;;6.80;86.96;98085.38;2304736;69;20331;-78
2021/01/30 01:52:28;;;;;;;4.81;0.68;;;;;;;6.81;86.93;98084.50;2303818;69;20166;-77
2021/01/30 01:55:30;;;;;;;4.43;0.98;;;;;;;6.81;86.89;98081.91;2304468;69;20346;-77
2021/01/30 01:58:39;;;;;;;5.97;0.81;;;;;;;6.82;86.94;98088.81;2304448;69;20302;-77
2021/01/30 02:01:40;;;;;;;12.10;1.80;;;;;;;6.83;86.91;98079.34;2303392;66;21035;-77
2021/01/30 02:05:16;;;;;;;4.84;0.84;;;;;;;6.82;86.85;98077.63;2303277;69;20194;-78
2021/01/30 02:08:20;;;;;;;3.97;0.79;;;;;;;6.81;86.87;98070.75;2304254;69;20290;-77
2021/01/30 02:11:22;;;;;;;6.71;1.77;;;;;;;6.80;86.93;98076.78;2304438;69;20352;-77
2021/01/30 02:14:24;;;;;;;5.28;0.70;;;;;;;6.78;87.03;98074.22;2303723;69;20298;-78
2021/01/30 02:17:43;;;;;;;7.13;1.26;;;;;;;6.79;87.24;98072.50;2304982;67;23081;-78
2021/01/30 02:21:50;;;;;;;4.41;0.71;;;;;;;6.77;87.47;98064.78;2304623;69;20388;-78
2021/01/30 02:25:19;;;;;;;4.06;0.79;;;;;;;6.77;87.68;98071.66;2277280;69;20332;-78
2021/01/30 02:28:53;;;;;;;7.93;1.00;;;;;;;6.78;87.95;98075.94;2303776;69;20330;-78
2021/01/30 02:32:32;;;;;;;6.46;1.00;;;;;;;6.77;88.22;98071.66;2304182;66;20234;-78
2021/01/30 02:35:55;;;;;;;5.70;1.11;;;;;;;6.77;88.43;98069.94;2304909;69;20286;-78
2021/01/30 02:39:00;;;;;;;13.19;1.29;;;;;;;6.73;88.72;98064.84;2304283;69;21117;-78
2021/01/30 02:42:11;;;;;;;6.65;1.11;;;;;;;6.74;88.78;98069.97;2303037;69;20355;-78
2021/01/30 02:45:28;;;;;;;6.13;1.30;;;;;;;6.74;88.83;98064.81;2302484;66;23080;-77
2021/01/30 02:48:35;;;;;;;8.31;1.44;;;;;;;6.76;88.86;98051.91;2305158;69;20286;-77
2021/01/30 02:51:42;;;;;;;6.97;1.50;;;;;;;6.75;88.83;98056.19;2304325;69;20359;-77
2021/01/30 02:54:45;;;;;;;14.98;1.83;;;;;;;6.78;88.65;98045.00;2303858;69;20294;-77
2021/01/30 02:57:47;;;;;;;9.19;1.42;;;;;;;6.77;88.58;98038.97;2303267;69;20327;-77
2021/01/30 03:00:56;;;;;;;14.38;2.00;;;;;;;6.76;88.29;98037.28;2304285;67;20328;-78
2021/01/30 03:04:01;;;;;;;7.57;1.27;;;;;;;6.76;88.20;98039.84;2306311;69;20322;-77
2021/01/30 03:07:15;;;;;;;9.50;2.92;;;;;;;6.74;87.90;98035.59;2305155;69;20149;-77
2021/01/30 03:10:28;;;;;;;10.64;1.63;;;;;;;6.70;87.53;98037.34;2305647;69;20270;-77
2021/01/30 03:13:47;;;;;;;12.95;2.22;;;;;;;6.69;87.42;98042.53;2303132;69;20346;-77
2021/01/30 03:16:50;;;;;;;11.34;1.48;;;;;;;6.67;86.85;98034.81;2302363;66;20318;-76
2021/01/30 03:19:55;;;;;;;12.02;2.17;;;;;;;6.66;86.68;98026.22;2303969;69;20451;-77
2021/01/30 03:22:58;;;;;;;10.50;2.04;;;;;;;6.64;86.44;98030.53;2304497;69;20302;-77
2021/01/30 03:26:04;;;;;;;16.50;1.75;;;;;;;6.62;86.29;98028.81;2303529;69;20336;-78
2021/01/30 03:29:06;;;;;;;8.00;1.61;;;;;;;6.59;86.20;98024.56;2304185;69;20644;-77
2021/01/30 03:32:07;;;;;;;9.96;1.27;;;;;;;6.55;85.98;98028.03;2302601;66;20634;-78
2021/01/30 03:35:12;;;;;;;11.34;1.20;;;;;;;6.54;86.04;98030.66;2303096;69;20762;-78
2021/01/30 03:38:13;;;;;;;7.70;0.95;;;;;;;6.55;85.86;98032.34;2302696;69;20314;-77
2021/01/30 03:41:15;;;;;;;9.63;1.40;;;;;;;6.51;85.52;98020.38;2303539;69;20304;-76
2021/01/30 03:44:17;;;;;;;10.60;1.58;;;;;;;6.48;85.33;98018.69;2303751;69;20314;-77
2021/01/30 03:47:18;;;;;;;7.95;1.40;;;;;;;6.45;85.27;98025.56;2301885;66;21171;-77
2021/01/30 03:50:21;;;;;;;8.48;1.90;;;;;;;6.43;85.08;98017.00;2303592;69;20879;-77
2021/01/30 03:53:22;;;;;;;9.14;1.50;;;;;;;6.38;85.09;98013.63;2303411;69;20314;-78
2021/01/30 03:56:24;;;;;;;11.49;1.80;;;;;;;6.38;85.04;98009.31;2303302;69;20298;-77
2021/01/30 03:59:25;;;;;;;11.26;1.60;;;;;;;6.36;85.04;98011.06;2304153;69;20648;-77
2021/01/30 04:02:27;;;;;;;9.61;1.38;;;;;;;6.33;84.88;98011.09;2303956;66;20322;-78
2021/01/30 04:05:29;;;;;;;11.63;1.48;;;;;;;6.32;84.73;98009.38;2302225;69;20467;-77
2021/01/30 04:08:31;;;;;;;11.44;2.05;;;;;;;6.29;84.36;98001.69;2302099;69;21138;-77
2021/01/30 04:11:33;;;;;;;10.44;3.22;;;;;;;6.23;84.50;98001.72;2302195;69;20395;-77
2021/01/30 04:14:36;;;;;;;8.69;1.31;;;;;;;6.18;84.49;97999.19;2301240;69;20351;-77
2021/01/30 04:17:37;;;;;;;13.86;2.05;;;;;;;6.16;84.50;97998.38;2300540;66;21054;-77
2021/01/30 04:20:40;;;;;;;10.68;1.48;;;;;;;6.13;84.58;97990.66;2301798;69;21279;-77
2021/01/30 04:23:46;;;;;;;6.94;1.45;;;;;;;6.11;84.59;97989.84;2301290;69;20399;-77
2021/01/30 04:26:49;;;;;;;9.76;1.99;;;;;;;6.09;84.65;97995.84;2302611;69;20874;-77
2021/01/30 04:29:51;;;;;;;6.36;1.42;;;;;;;6.07;84.53;97991.56;2301854;69;20316;-78
2021/01/30 04:32:53;;;;;;;8.39;2.10;;;;;;;6.05;84.43;97990.72;2304779;66;40127;-77
2021/01/30 04:35:55;;;;;;;8.51;1.80;;;;;;;6.04;84.52;97989.00;2302361;69;20306;-78
2021/01/30 04:38:57;;;;;;;11.01;2.09;;;;;;;6.03;84.63;97997.63;2301942;69;20311;-77
2021/01/30 04:42:05;;;;;;;7.50;1.59;;;;;;;6.02;84.65;98000.19;2301020;69;20991;-78
2021/01/30 04:45:31;;;;;;;7.84;1.04;;;;;;;6.03;84.64;97999.34;2300372;69;20298;-77
2021/01/30 04:48:42;;;;;;;8.23;1.38;;;;;;;6.03;84.77;97996.75;2302274;69;20492;-77
2021/01/30 04:52:09;;;;;;;15.45;4.19;;;;;;;6.04;84.99;97990.72;2301179;69;20295;-76
2021/01/30 04:55:19;;;;;;;12.88;1.25;;;;;;;6.08;85.12;97984.69;2302417;69;20295;-77
2021/01/30 04:58:40;;;;;;;8.59;2.19;;;;;;;6.11;85.02;97979.53;2300677;69;20317;-76
2021/01/30 05:02:00;;;;;;;10.50;1.24;;;;;;;6.11;85.18;97976.94;2301312;66;20709;-77
2021/01/30 05:05:03;;;;;;;11.41;1.54;;;;;;;6.14;85.33;97970.91;2301954;69;20324;-78
2021/01/30 05:08:13;;;;;;;15.09;3.38;;;;;;;6.17;85.33;97958.84;2301866;69;20282;-77
2021/01/30 05:11:20;;;;;;;7.72;1.34;;;;;;;6.19;85.25;97951.09;2305683;69;20336;-77
2021/01/30 05:14:26;;;;;;;15.74;2.44;;;;;;;6.20;85.31;97943.34;2301613;69;20298;-76
2021/01/30 05:17:34;;;;;;;19.08;2.41;;;;;;;6.21;85.42;97939.88;2300728;67;20813;-77
2021/01/30 05:20:38;;;;;;;9.43;2.21;;;;;;;6.23;85.60;97934.72;2302128;69;20365;-78
2021/01/30 05:23:43;;;;;;;12.31;2.14;;;;;;;6.25;85.67;97927.81;2301464;69;20322;-77
2021/01/30 05:26:51;;;;;;;14.25;1.56;;;;;;;6.25;85.76;97935.56;2301114;69;20336;-76
2021/01/30 05:30:05;;;;;;;15.30;3.26;;;;;;;6.27;85.85;97924.34;2301206;69;20915;-77
2021/01/30 05:33:15;;;;;;;17.41;3.05;;;;;;;6.29;85.83;97917.47;2301177;67;22480;-77
2021/01/30 05:36:34;;;;;;;10.90;2.16;;;;;;;6.30;85.76;97911.47;2302202;69;20755;-76
2021/01/30 05:40:14;;;;;;;13.40;2.68;;;;;;;6.31;85.68;97910.59;2301734;69;20282;-78
2021/01/30 05:43:48;;;;;;;14.31;2.15;;;;;;;6.30;85.72;97906.31;2290031;69;20149;-77
2021/01/30 05:46:52;;;;;;;11.69;2.29;;;;;;;6.30;85.93;97898.56;2300510;66;23047;-77
2021/01/30 05:50:10;;;;;;;14.46;3.26;;;;;;;6.32;86.01;97888.25;2301950;69;20340;-76
2021/01/30 05:53:18;;;;;;;10.48;1.97;;;;;;;6.30;86.22;97877.94;2301500;69;21259;-77
2021/01/30 05:56:19;;;;;;;13.04;2.47;;;;;;;6.33;86.20;97874.47;2301018;69;20148;-77
2021/01/30 05:59:27;;;;;;;13.96;2.99;;;;;;;6.32;86.30;97855.59;2301469;69;20308;-77
2021/01/30 06:02:31;;;;;;;11.50;2.19;;;;;;;6.33;86.26;97852.13;2304942;66;35633;-77
2021/01/30 06:05:37;;;;;;;14.57;2.20;;;;;;;6.34;86.38;97848.69;2301578;69;20227;-77
2021/01/30 06:08:54;;;;;;;19.40;3.14;;;;;;;6.33;86.28;97846.97;2300815;69;20294;-76
2021/01/30 06:11:56;;;;;;;14.59;2.54;;;;;;;6.34;86.19;97852.97;2301877;69;20890;-78
2021/01/30 06:15:14;;;;;;;11.64;2.26;;;;;;;6.34;86.28;97853.84;2301771;69;20848;-78
2021/01/30 06:18:27;;;;;;;15.98;3.24;;;;;;;6.37;86.25;97852.94;2301083;69;20298;-77
2021/01/30 06:21:29;;;;;;;13.69;3.03;;;;;;;6.36;86.46;97853.81;2301448;69;20294;-77
2021/01/30 06:24:31;;;;;;;17.42;3.29;;;;;;;6.33;86.43;97854.72;2301130;69;20432;-78
2021/01/30 06:27:41;;;;;;;10.24;2.78;;;;;;;6.36;86.53;97846.06;2301487;69;20302;-76
2021/01/30 06:30:44;;;;;;;11.59;2.53;;;;;;;6.35;86.56;97846.94;2300781;66;20368;-76
2021/01/30 06:33:51;;;;;;;14.25;2.08;;;;;;;6.35;86.67;97839.22;2299994;69;20335;-77
2021/01/30 06:36:53;;;;;;;11.45;1.83;;;;;;;6.38;86.74;97838.31;2299841;69;20310;-77
2021/01/30 06:40:13;;;;;;;15.01;3.25;;;;;;;6.41;86.81;97846.00;2300603;69;20321;-75
2021/01/30 06:43:22;;;;;;;;;;;;;;;6.46;86.80;97841.63;2300486;69;20298;-77
2021/01/30 06:46:24;;;;;;;9.35;1.88;;;;;;;6.49;86.59;97828.72;2299186;67;21528;-77
2021/01/30 06:49:32;;;;;;;15.61;3.36;;;;;;;6.49;86.49;97831.31;2300120;69;20393;-77
2021/01/30 06:52:34;;;;;;;15.22;2.26;;;;;;;6.46;86.41;97832.19;2299338;69;21233;-76
2021/01/30 06:55:36;;;;;;;13.41;2.00;;;;;;;6.45;86.49;97834.78;2299326;69;20259;-77
2021/01/30 06:58:40;;;;;;;14.46;2.89;;;;;;;6.45;86.48;97832.19;2300591;69;20312;-73
2021/01/30 07:01:44;;;;;;;14.49;2.79;;;;;;;6.43;86.52;97832.22;2299850;67;20332;-76
2021/01/30 07:05:10;;;;;;;13.27;2.56;;;;;;;6.43;86.70;97839.09;2300446;69;20282;-76
2021/01/30 07:08:26;;;;;;;16.84;2.36;;;;;;;6.42;86.74;97827.94;2301591;69;21180;-76
2021/01/30 07:12:17;;;;;;;16.59;2.61;;;;;;;6.42;86.89;97827.09;2311440;69;20261;-83
2021/01/30 07:15:36;;;;;;;16.52;2.13;;;;;;;6.47;86.87;97833.06;2300958;67;20734;-76
2021/01/30 07:18:53;;;;;;;15.56;3.37;;;;;;;6.46;86.95;97828.75;2301134;69;20906;-74
2021/01/30 07:22:10;;;;;;;16.56;2.41;;;;;;;6.48;86.98;97829.59;2296151;69;20564;-77
2021/01/30 07:25:18;;;;;;;13.48;2.47;;;;;;;6.50;86.92;97830.44;2310539;69;20323;-77
2021/01/30 07:28:35;;;;;;;13.30;1.64;;;;;;;6.53;86.89;97836.41;2300980;69;21026;-77
2021/01/30 07:31:45;;;;;;;11.04;1.96;;;;;;;6.54;86.95;97830.38;2299916;67;21583;-77
2021/01/30 07:34:59;;;;;;;10.82;2.03;;;;;;;6.57;86.92;97826.91;2301982;69;20327;-76
2021/01/30 07:38:19;;;;;;;20.21;3.67;;;;;;;6.62;86.91;97825.94;2307799;69;20282;-78
2021/01/30 07:41:25;;;;;;;;;;;;;;;6.69;86.73;97828.47;2311463;69;20298;-79
2021/01/30 07:44:34;;;;;;;10.96;1.88;;;;;;;6.70;86.58;97825.00;2319828;69;20047;-80
2021/01/30 07:48:18;;;;;;;14.63;1.84;;;;;;;6.68;86.52;97813.88;2319052;66;36512;-79
2021/01/30 07:51:37;;;;;;;14.99;3.05;;;;;;;6.65;86.67;97815.63;2319252;69;20278;-80
2021/01/30 07:54:48;;;;;;;12.06;2.25;;;;;;;6.66;86.83;97811.31;2320703;69;20293;-81
2021/01/30 08:01:57;;;;;;;13.63;2.17;;;;;;;6.71;86.87;97808.66;2326339;66;47937;-82
2021/01/30 08:12:47;;;;;;;13.70;1.74;;;;;;;6.62;87.59;97801.88;2320685;68;20850;-81
2021/01/30 08:16:24;;;;;;;12.96;1.74;;;;;;;6.63;87.96;97799.28;2309902;69;20294;-82
2021/01/30 08:19:51;;;;;;;16.10;3.01;;;;;;;6.65;88.00;97794.97;2313023;69;20282;-80
2021/01/30 08:23:29;;;;;;;15.01;1.95;;;;;;;6.65;88.20;97788.97;2317492;69;20656;-80
2021/01/30 08:26:39;;;;;;;20.50;2.35;;;;;;;6.67;88.30;97782.06;2314265;69;20294;-84
2021/01/30 08:29:46;;;;;;;13.30;1.65;;;;;;;6.70;88.29;97776.84;2313435;69;20308;-82
2021/01/30 08:32:58;;;;;;;20.46;3.31;;;;;;;6.70;88.34;97773.41;2311709;66;21060;-82
2021/01/30 08:36:01;;;;;;;16.39;2.89;;;;;;;6.64;88.50;97772.66;2315158;69;20282;-82
2021/01/30 08:39:18;;;;;;;12.31;2.63;;;;;;;6.64;88.74;97758.88;2316484;69;20298;-84
2021/01/30 08:42:22;;;;;;;10.75;2.22;;;;;;;6.65;88.84;97756.31;2317772;69;20307;-83
2021/01/30 08:45:29;;;;;;;13.31;2.31;;;;;;;6.65;88.79;97756.31;2325487;69;20291;-84
2021/01/30 08:48:32;;;;;;;16.05;1.80;;;;;;;6.66;88.96;97754.56;2322711;69;20294;-84
2021/01/30 08:51:33;;;;;;;8.66;1.64;;;;;;;6.65;89.10;97748.56;2327759;69;20304;-85
2021/01/30 08:54:45;;;;;;;14.34;1.96;;;;;;;6.68;89.34;97739.06;2327097;69;20362;-85
2021/01/30 08:57:49;;;;;;;10.66;2.16;;;;;;;6.73;89.37;97745.84;2322180;69;20307;-85
2021/01/30 09:16:02;;;;;;;9.43;2.49;;;;;;;6.93;89.01;97737.78;2338410;66;60867;-83
2021/01/30 09:29:54;;;;;;;11.73;1.61;;;;;;;6.86;89.52;97733.63;2329745;68;20304;-84
2021/01/30 09:43:27;;;;;;;10.75;2.20;;;;;;;6.94;89.65;97718.84;2332363;68;20338;-85
2021/01/30 09:46:34;;;;;;;8.40;1.84;;;;;;;6.96;89.74;97714.50;2327685;69;20309;-84
2021/01/30 09:50:18;;;;;;;11.56;1.90;;;;;;;6.98;89.68;97713.59;2322981;69;20323;-83
2021/01/30 09:53:35;;;;;;;9.61;1.34;;;;;;;7.02;89.83;97717.00;2304505;69;20296;-83
2021/01/30 09:56:37;;;;;;;6.41;1.75;;;;;;;7.06;89.55;97708.31;2303474;69;20314;-86
2021/01/30 09:59:39;;;;;;;10.32;1.74;;;;;;;7.06;89.54;97703.16;2303530;69;20324;-83
2021/01/30 10:02:41;;;;;;;8.69;1.30;;;;;;;7.08;89.66;97703.13;2288638;67;25738;-81
2021/01/30 10:05:47;;;;;;;8.90;2.47;;;;;;;7.11;89.70;97693.59;2295977;69;20379;-85
2021/01/30 10:08:49;;;;;;;8.32;1.61;;;;;;;7.20;89.73;97695.19;2304585;69;20297;-84
2021/01/30 10:11:56;;;;;;;8.35;1.69;;;;;;;7.22;89.63;97691.69;2304111;69;20661;-85
2021/01/30 10:14:58;;;;;;;6.34;1.76;;;;;;;7.23;89.44;97693.38;2307622;69;20273;-83
2021/01/30 10:18:08;;;;;;;5.05;1.09;;;;;;;7.23;89.47;97690.81;2304698;67;21202;-84
2021/01/30 10:21:10;;;;;;;7.80;1.27;;;;;;;7.28;89.65;97688.97;2308682;69;20881;-84
2021/01/30 10:24:23;;;;;;;9.24;2.41;;;;;;;7.27;89.29;97679.53;2322671;69;20293;-84
2021/01/30 10:27:29;;;;;;;6.38;1.30;;;;;;;7.35;89.34;97673.38;2323766;69;20299;-83
2021/01/30 10:30:31;;;;;;;6.39;1.85;;;;;;;7.41;89.20;97668.97;2326053;69;20798;-84
2021/01/30 10:33:36;;;;;;;3.16;0.95;;;;;;;7.44;89.20;97655.97;2326638;69;20333;-84
2021/01/30 10:36:39;;;;;;;4.69;1.09;;;;;;;7.49;88.98;97648.97;2330030;69;20301;-84
2021/01/30 10:39:50;;;;;;;10.54;1.83;;;;;;;7.52;88.79;97635.16;2330336;69;20343;-84
2021/01/30 10:42:58;;;;;;;7.47;0.88;;;;;;;7.58;88.60;97633.31;2320936;69;20415;-78
2021/01/30 10:46:04;;;;;;;5.70;1.59;;;;;;;7.64;88.36;97618.56;2325999;69;22348;-82
2021/01/30 10:49:24;;;;;;;6.82;1.51;;;;;;;7.69;88.06;97616.72;2326142;69;20286;-83
2021/01/30 10:52:27;;;;;;;6.40;1.50;;;;;;;7.73;87.93;97595.97;2324020;69;20298;-83
2021/01/30 10:55:33;;;;;;;10.15;1.61;;;;;;;7.79;87.76;97600.16;2326702;69;20805;-82
2021/01/30 10:58:35;;;;;;;7.50;1.71;;;;;;;7.80;87.50;97592.38;2324370;69;20311;-84
2021/01/30 11:01:37;;;;;;;4.68;1.17;;;;;;;7.84;87.38;97582.81;2322527;67;21580;-84
2021/01/30 11:04:38;;;;;;;6.51;1.33;;;;;;;7.88;87.29;97576.69;2324285;69;20289;-84
2021/01/30 11:07:43;;;;;;;8.57;1.59;;;;;;;7.92;87.17;97574.91;2330387;69;20337;-85
2021/01/30 11:10:48;;;;;;;6.15;1.24;;;;;;;7.91;87.14;97565.44;2326103;69;20281;-84
2021/01/30 11:13:50;;;;;;;6.13;1.33;;;;;;;7.92;86.97;97557.66;2328485;69;20328;-83
2021/01/30 11:16:52;;;;;;;5.78;0.94;;;;;;;7.90;86.95;97549.09;2326905;69;20307;-85
2021/01/30 11:19:54;;;;;;;5.95;1.01;;;;;;;7.88;86.65;97545.66;2330200;69;20289;-84
2021/01/30 11:22:55;;;;;;;2.72;0.70;;;;;;;7.89;86.60;97529.28;2329552;69;20277;-85
2021/01/30 11:25:57;;;;;;;4.44;0.77;;;;;;;7.86;86.31;97525.03;2332525;69;20305;-85
2021/01/30 11:29:01;;;;;;;3.65;0.90;;;;;;;7.80;86.01;97520.03;2325698;69;20344;-84
2021/01/30 11:32:06;;;;;;;2.75;0.60;;;;;;;7.79;85.95;97517.47;2328984;69;20657;-85
2021/01/30 11:35:12;;;;;;;3.24;0.91;;;;;;;7.77;85.78;97519.25;2334371;69;20989;-84
2021/01/30 11:38:17;;;;;;;2.45;0.95;;;;;;;7.72;85.89;97503.88;2331848;69;20301;-84
2021/01/30 11:41:18;;;;;;;7.36;2.11;;;;;;;7.72;86.05;97503.00;2333025;69;20683;-85
2021/01/30 11:44:20;;;;;;;7.14;1.60;;;;;;;7.71;86.08;97496.97;2331560;69;20303;-85
2021/01/30 11:47:22;;;;;;;3.74;1.15;;;;;;;7.74;86.18;97493.50;2326113;67;26365;-85
2021/01/30 11:50:24;;;;;;;6.20;1.16;;;;;;;7.74;86.12;97481.44;2326999;69;20307;-84
2021/01/30 11:53:30;;;;;;;3.74;1.20;;;;;;;7.75;86.12;97474.53;2332228;69;20861;-85
2021/01/30 11:56:32;;;;;;;4.91;1.04;;;;;;;7.78;86.21;97466.69;2327108;69;20271;-84
2021/01/30 11:59:33;;;;;;;4.35;1.35;;;;;;;7.77;86.15;97465.00;2324743;69;20309;-84
2021/01/30 12:02:38;;;;;;;3.63;1.29;;;;;;;7.78;85.96;97462.38;2333462;67;22825;-85
2021/01/30 12:05:40;;;;;;;3.95;1.08;;;;;;;7.77;85.83;97452.09;2333546;69;20340;-85
2021/01/30 12:08:42;;;;;;;4.50;1.04;;;;;;;7.75;85.95;97451.28;2334052;69;20376;-84
2021/01/30 12:11:43;;;;;;;2.61;1.33;;;;;;;7.73;85.94;97453.06;2328696;69;20249;-86
2021/01/30 12:14:45;;;;;;;3.97;0.99;;;;;;;7.70;86.13;97451.38;2321813;69;20257;-81
2021/01/30 12:17:48;;;;;;;1.89;1.06;;;;;;;7.70;86.20;97445.34;2322982;67;21673;-86
2021/01/30 12:20:51;;;;;;;4.57;1.39;;;;;;;7.68;86.23;97435.06;2326614;69;20301;-86
2021/01/30 12:23:53;;;;;;;5.30;1.51;;;;;;;7.64;86.24;97436.03;2323163;68;20346;-85
2021/01/30 12:26:54;;;;;;;2.10;0.59;;;;;;;7.63;86.31;97433.50;2325279;69;20901;-84
2021/01/30 12:29:56;;;;;;;3.64;0.95;;;;;;;7.56;86.24;97430.22;2328310;69;20280;-83
2021/01/30 12:32:58;;;;;;;4.86;1.52;;;;;;;7.50;86.17;97425.16;2322193;66;60385;-83
2021/01/30 12:36:00;;;;;;;2.08;1.19;;;;;;;7.48;86.21;97421.78;2326583;69;20415;-83
2021/01/30 12:39:02;;;;;;;2.26;0.90;;;;;;;7.43;86.24;97415.88;2329307;69;20432;-83
2021/01/30 12:42:05;;;;;;;2.42;0.80;;;;;;;7.39;86.35;97417.69;2318380;69;20321;-79
2021/01/30 12:45:07;;;;;;;3.25;1.86;;;;;;;7.39;86.42;97416.84;2320464;69;20287;-85
2021/01/30 12:48:10;;;;;;;2.15;1.06;;;;;;;7.35;86.50;97404.88;2328619;66;25043;-83
2021/01/30 12:51:13;;;;;;;5.19;1.96;;;;;;;7.32;86.54;97410.13;2329747;69;20321;-84
2021/01/30 12:54:19;;;;;;;3.95;1.24;;;;;;;7.28;86.63;97405.03;2332648;69;20246;-82
2021/01/30 12:57:21;;;;;;;3.26;1.15;;;;;;;7.25;86.72;97402.53;2330115;69;20349;-84
2021/01/30 13:00:25;;;;;;;2.24;0.84;;;;;;;7.20;86.93;97393.19;2323897;66;20350;-78
2021/01/30 13:03:29;;;;;;;4.24;1.16;;;;;;;7.13;87.20;97382.16;2321837;69;20391;-84
2021/01/30 13:06:33;;;;;;;1.88;1.42;;;;;;;7.12;87.62;97389.94;2330141;69;20402;-83
2021/01/30 13:09:35;;;;;;;5.45;2.08;;;;;;;7.12;87.66;97379.63;2327684;69;20429;-82
2021/01/30 13:12:37;;;;;;;2.95;1.60;;;;;;;7.09;87.97;97388.28;2324305;69;20334;-83
2021/01/30 13:15:39;;;;;;;4.74;1.51;;;;;;;7.11;88.23;97381.34;2328181;67;21018;-83
2021/01/30 13:18:40;;;;;;;3.08;0.81;;;;;;;7.13;88.34;97373.56;2326887;69;20306;-82
2021/01/30 13:21:52;;;;;;;3.56;1.02;;;;;;;7.14;88.29;97368.38;2323616;69;20421;-84
2021/01/30 13:24:54;;;;;;;3.99;1.61;;;;;;;7.14;88.32;97367.50;2326766;69;20297;-83
2021/01/30 13:27:56;;;;;;;2.67;1.15;;;;;;;7.15;88.29;97356.31;2325532;69;20289;-82
2021/01/30 13:30:58;;;;;;;2.31;0.88;;;;;;;7.13;88.54;97347.75;2326293;69;20289;-85
2021/01/30 13:34:00;;;;;;;2.56;0.86;;;;;;;7.15;88.70;97335.66;2327639;69;20500;-83
2021/01/30 13:37:02;;;;;;;2.89;0.91;;;;;;;7.19;88.75;97333.00;2334694;69;20336;-83
2021/01/30 13:40:05;;;;;;;2.79;0.70;;;;;;;7.18;88.72;97336.47;2324500;69;20326;-83
2021/01/30 13:43:08;;;;;;;2.95;0.84;;;;;;;7.16;88.92;97335.63;2325600;69;20274;-82
2021/01/30 13:46:09;;;;;;;3.36;0.70;;;;;;;7.16;89.06;97329.63;2331434;66;21396;-82
2021/01/30 13:49:11;;;;;;;1.33;0.59;;;;;;;7.12;89.09;97333.16;2326528;69;20148;-83
2021/01/30 13:52:13;;;;;;;2.33;0.63;;;;;;;7.12;89.25;97326.25;2333869;69;20399;-84
2021/01/30 13:55:16;;;;;;;2.24;1.15;;;;;;;7.14;89.33;97326.22;2327147;69;20290;-83
2021/01/30 13:58:17;;;;;;;2.84;0.79;;;;;;;7.16;89.23;97320.13;2323723;69;20297;-84
2021/01/30 14:01:19;;;;;;;1.59;0.77;;;;;;;7.18;89.28;97320.09;2323127;69;22183;-83
2021/01/30 14:04:21;;;;;;;1.01;0.50;;;;;;;7.18;89.30;97317.50;2327292;69;20293;-84
2021/01/30 14:07:22;;;;;;;1.48;0.70;;;;;;;7.16;89.21;97317.56;2327647;69;20403;-83
2021/01/30 14:10:26;;;;;;;1.69;0.52;;;;;;;7.14;89.21;97321.06;2330016;69;20257;-83
2021/01/30 14:13:28;;;;;;;1.60;0.50;;;;;;;7.14;89.17;97314.16;2327657;69;20277;-83
2021/01/30 14:16:29;;;;;;;0.91;0.44;;;;;;;7.14;89.21;97309.00;2326004;69;20289;-83
2021/01/30 14:19:32;;;;;;;2.22;0.50;;;;;;;7.14;89.12;97313.31;2321721;69;20505;-85
2021/01/30 14:22:34;;;;;;;1.85;0.77;;;;;;;7.14;89.30;97311.59;2312464;69;20289;-76
2021/01/30 14:25:36;;;;;;;0.65;0.45;;;;;;;7.16;89.23;97306.38;2307015;69;20300;-76
2021/01/30 14:28:39;;;;;;;2.04;0.60;;;;;;;7.17;89.17;97306.34;2308375;69;20674;-77
2021/01/30 14:31:40;;;;;;;0.70;0.43;;;;;;;7.20;89.15;97295.97;2307051;66;20377;-78
2021/01/30 14:34:42;;;;;;;0.46;0.46;;;;;;;7.21;89.02;97299.41;2307761;69;20351;-76
2021/01/30 14:37:44;;;;;;;0.86;0.50;;;;;;;7.18;89.02;97299.44;2307541;69;20309;-76
2021/01/30 14:40:46;;;;;;;2.22;0.54;;;;;;;7.18;89.01;97297.75;2308987;69;20315;-77
2021/01/30 14:43:48;;;;;;;1.25;0.50;;;;;;;7.16;88.79;97293.47;2311974;68;20309;-75
2021/01/30 14:46:49;;;;;;;1.69;0.60;;;;;;;7.12;88.83;97290.13;2309091;66;23530;-76
2021/01/30 14:49:52;;;;;;;0.80;0.80;;;;;;;7.10;88.88;97285.91;2308119;69;20309;-76
2021/01/30 14:52:53;;;;;;;2.64;1.08;;;;;;;7.09;88.98;97287.63;2320521;69;20309;-82
2021/01/30 14:55:55;;;;;;;1.11;0.70;;;;;;;7.09;89.00;97282.47;2320909;69;20385;-78
2021/01/30 14:58:56;;;;;;;1.75;0.88;;;;;;;7.10;88.94;97280.75;2319937;69;20281;-82
2021/01/30 15:01:59;;;;;;;1.38;0.93;;;;;;;7.06;88.83;97274.81;2323575;66;20668;-82
2021/01/30 15:05:01;;;;;;;1.25;0.80;;;;;;;7.06;88.83;97284.28;2322427;69;20315;-82
2021/01/30 15:08:06;;;;;;;0.71;0.50;;;;;;;7.03;88.72;97276.63;2326448;69;20427;-82
2021/01/30 15:11:08;;;;;;;0.50;0.50;;;;;;;6.98;88.65;97280.16;2324973;69;20297;-83
2021/01/30 15:14:09;;;;;;;0.61;0.50;;;;;;;6.95;88.63;97275.06;2316283;69;20325;-81
2021/01/30 15:17:11;;;;;;;1.20;0.43;;;;;;;6.93;88.59;97276.84;2311154;66;21044;-80
2021/01/30 15:20:13;;;;;;;0.65;0.40;;;;;;;6.89;88.65;97275.22;2311324;69;20420;-79
2021/01/30 15:23:16;;;;;;;1.46;0.50;;;;;;;6.85;88.70;97265.88;2308191;69;20317;-79
2021/01/30 15:26:18;;;;;;;1.00;0.50;;;;;;;6.85;88.73;97265.03;2312445;69;20867;-79
2021/01/30 15:29:19;;;;;;;1.10;0.61;;;;;;;6.82;88.77;97265.94;2314558;69;20847;-79
2021/01/30 15:32:21;;;;;;;0.85;0.50;;;;;;;6.81;88.79;97260.78;2315304;66;46547;-79
2021/01/30 15:35:24;;;;;;;0.55;0.34;;;;;;;6.82;88.82;97262.50;2315997;69;21065;-81
2021/01/30 15:38:26;;;;;;;0.50;0.39;;;;;;;6.78;88.85;97260.88;2317556;69;20306;-80